createdAt,value
2023-04-03T00:01:12.354Z,5.43
2023-04-03T00:03:39.472Z,5.51
2023-04-03T00:06:11.717Z,5.52
2023-04-03T00:08:39.832Z,5.52
2023-04-03T00:11:07.671Z,5.44
2023-04-03T00:13:35.322Z,5.29
2023-04-03T00:16:04.412Z,5.48
2023-04-03T00:18:31.533Z,5.49
2023-04-03T00:20:59.182Z,5.58
2023-04-03T00:23:26.280Z,5.74
2023-04-03T00:25:54.319Z,5.46
2023-04-03T00:28:21.690Z,5.51
2023-04-03T00:30:51.465Z,5.40
2023-04-03T00:33:18.423Z,5.41
2023-04-03T00:35:45.666Z,5.67
2023-04-03T00:38:12.724Z,5.51
2023-04-03T00:40:44.044Z,5.67
2023-04-03T00:43:20.025Z,5.53
2023-04-03T00:45:50.316Z,5.72
2023-04-03T00:48:22.172Z,5.72
2023-04-03T00:50:49.711Z,5.84
2023-04-03T00:53:28.904Z,5.88
2023-04-03T00:55:57.728Z,5.56
2023-04-03T00:58:35.379Z,5.45
2023-04-03T01:01:06.632Z,5.38
2023-04-03T01:03:33.749Z,5.66
2023-04-03T01:06:01.101Z,5.28
2023-04-03T01:08:28.183Z,5.41
2023-04-03T01:10:55.161Z,5.39
2023-04-03T01:13:29.595Z,5.51
2023-04-03T01:15:56.763Z,5.32
2023-04-03T01:18:26.493Z,5.44
2023-04-03T01:20:56.812Z,5.98
2023-04-03T01:23:55.954Z,5.42
2023-04-03T01:26:23.007Z,5.80
2023-04-03T01:28:49.923Z,5.70
2023-04-03T01:31:26.446Z,5.52
2023-04-03T01:33:53.833Z,5.55
2023-04-03T01:36:25.679Z,5.67
2023-04-03T01:38:54.586Z,5.88
2023-04-03T01:41:22.407Z,5.76
2023-04-03T01:43:50.468Z,5.48
2023-04-03T01:46:19.143Z,5.66
2023-04-03T01:48:46.574Z,5.90
2023-04-03T01:51:13.885Z,5.74
2023-04-03T01:53:41.004Z,5.42
2023-04-03T01:56:08.965Z,5.69
2023-04-03T01:58:36.012Z,5.96
2023-04-03T02:01:03.613Z,6.16
2023-04-03T02:03:30.986Z,5.76
2023-04-03T02:05:58.410Z,6.48
2023-04-03T02:08:25.727Z,6.19
2023-04-03T02:10:53.031Z,5.99
2023-04-03T02:13:20.593Z,6.29
2023-04-03T02:15:47.833Z,6.19
2023-04-03T02:18:15.723Z,6.27
2023-04-03T02:20:42.831Z,6.44
2023-04-03T02:23:10.102Z,6.49
2023-04-03T02:25:38.836Z,5.95
2023-04-03T02:28:06.790Z,5.94
2023-04-03T02:30:34.263Z,6.45
2023-04-03T02:33:01.572Z,5.95
2023-04-03T02:35:29.057Z,6.01
2023-04-03T02:37:56.113Z,6.10
2023-04-03T02:40:23.217Z,6.33
2023-04-03T02:42:50.228Z,6.18
2023-04-03T02:45:17.322Z,6.25
2023-04-03T02:47:44.434Z,5.72
2023-04-03T02:50:11.524Z,5.49
2023-04-03T02:52:39.756Z,5.64
2023-04-03T02:55:10.062Z,5.86
2023-04-03T02:57:37.600Z,5.71
2023-04-03T03:00:05.222Z,5.77
2023-04-03T03:02:32.660Z,5.88
2023-04-03T03:05:01.204Z,5.56
2023-04-03T03:07:28.185Z,5.86
2023-04-03T03:09:56.172Z,5.97
2023-04-03T03:12:24.613Z,5.51
2023-04-03T03:14:52.206Z,6.00
2023-04-03T03:17:19.531Z,5.75
2023-04-03T03:19:47.323Z,5.71
2023-04-03T03:22:14.557Z,5.66
2023-04-03T03:24:41.670Z,5.38
2023-04-03T03:27:09.959Z,5.35
2023-04-03T03:29:37.192Z,5.40
2023-04-03T03:32:04.372Z,5.58
2023-04-03T03:34:31.520Z,5.66
2023-04-03T03:36:58.966Z,5.43
2023-04-03T03:39:26.179Z,5.64
2023-04-03T03:41:54.671Z,5.76
2023-04-03T03:44:22.422Z,5.87
2023-04-03T03:46:49.489Z,5.32
2023-04-03T03:49:16.622Z,5.42
2023-04-03T03:51:43.907Z,5.30
2023-04-03T03:54:11.371Z,5.43
2023-04-03T03:56:38.471Z,5.50
2023-04-03T03:59:05.654Z,5.35
2023-04-03T04:01:33.833Z,5.12
2023-04-03T04:04:01.064Z,5.52
2023-04-03T04:06:28.090Z,5.34
2023-04-03T04:08:55.395Z,5.22
2023-04-03T04:11:23.185Z,5.57
2023-04-03T04:13:50.485Z,5.33
2023-04-03T04:16:17.737Z,5.41
2023-04-03T04:18:44.919Z,5.49
2023-04-03T04:21:12.067Z,5.60
2023-04-03T04:23:39.090Z,5.29
2023-04-03T04:26:06.234Z,5.42
2023-04-03T04:28:33.365Z,5.43
2023-04-03T04:31:00.633Z,5.26
2023-04-03T04:33:27.768Z,5.44
2023-04-03T04:35:55.005Z,4.89
2023-04-03T04:38:23.161Z,5.44
2023-04-03T04:40:50.351Z,5.34
2023-04-03T04:43:21.794Z,5.42
2023-04-03T04:45:49.280Z,5.65
2023-04-03T04:48:17.937Z,6.16
2023-04-03T04:50:45.664Z,5.93
2023-04-03T04:53:12.650Z,6.54
2023-04-03T04:55:39.613Z,6.11
2023-04-03T04:58:06.679Z,6.03
2023-04-03T05:00:33.689Z,5.57
2023-04-03T05:03:00.702Z,5.78
2023-04-03T05:05:28.856Z,5.67
2023-04-03T05:07:56.064Z,5.27
2023-04-03T05:10:23.146Z,5.93
2023-04-03T05:12:50.228Z,5.35
2023-04-03T05:15:17.374Z,5.28
2023-04-03T05:17:44.562Z,5.34
2023-04-03T05:20:14.334Z,5.51
2023-04-03T05:22:41.374Z,5.79
2023-04-03T05:25:09.088Z,6.35
2023-04-03T05:27:36.195Z,7.09
2023-04-03T05:30:04.103Z,7.83
2023-04-03T05:32:31.045Z,8.22
2023-04-03T05:34:59.993Z,8.45
2023-04-03T05:37:27.835Z,8.92
2023-04-03T05:39:54.774Z,9.42
2023-04-03T05:42:23.721Z,8.98
2023-04-03T05:44:51.423Z,8.50
2023-04-03T05:47:21.561Z,8.68
2023-04-03T05:49:48.507Z,9.43
2023-04-03T05:52:29.654Z,9.20
2023-04-03T05:54:57.272Z,9.72
2023-04-03T05:57:24.756Z,9.55
2023-04-03T05:59:51.998Z,10.01
2023-04-03T06:02:22.479Z,9.18
2023-04-03T06:04:50.776Z,8.89
2023-04-03T06:07:23.802Z,9.29
2023-04-03T06:09:54.318Z,9.09
2023-04-03T06:12:22.401Z,8.91
2023-04-03T06:14:49.886Z,9.40
2023-04-03T06:17:21.793Z,8.66
2023-04-03T06:19:52.797Z,8.33
2023-04-03T06:22:22.303Z,7.95
2023-04-03T06:24:51.464Z,7.64
2023-04-03T06:27:35.587Z,7.40
2023-04-03T06:30:02.973Z,7.34
2023-04-03T06:32:30.181Z,7.01
2023-04-03T06:35:00.453Z,7.08
2023-04-03T06:37:27.561Z,7.15
2023-04-03T06:39:54.661Z,7.07
2023-04-03T06:42:22.217Z,7.25
2023-04-03T06:44:50.212Z,7.20
2023-04-03T06:47:18.023Z,7.12
2023-04-03T06:49:45.716Z,6.68
2023-04-03T06:52:15.877Z,6.87
2023-04-03T06:54:44.331Z,7.23
2023-04-03T06:57:12.126Z,6.96
2023-04-03T06:59:45.532Z,7.04
2023-04-03T07:02:14.663Z,7.08
2023-04-03T07:04:42.861Z,6.83
2023-04-03T07:07:16.468Z,6.85
2023-04-03T07:09:48.028Z,6.98
2023-04-03T07:12:15.294Z,6.94
2023-04-03T07:14:42.929Z,6.99
2023-04-03T07:17:10.011Z,6.65
2023-04-03T07:19:37.435Z,6.46
2023-04-03T07:22:08.751Z,6.89
2023-04-03T07:24:36.100Z,6.75
2023-04-03T07:27:03.921Z,6.73
2023-04-03T07:29:32.464Z,7.16
2023-04-03T07:31:59.559Z,6.77
2023-04-03T07:34:28.885Z,6.92
2023-04-03T07:36:58.201Z,6.42
2023-04-03T07:39:26.992Z,6.11
2023-04-03T07:41:56.104Z,6.57
2023-04-03T07:44:24.249Z,6.86
2023-04-03T07:46:51.812Z,6.66
2023-04-03T07:49:20.197Z,6.72
2023-04-03T07:51:47.923Z,6.88
2023-04-03T07:54:15.052Z,6.85
2023-04-03T07:56:48.006Z,6.64
2023-04-03T07:59:18.539Z,6.81
2023-04-03T08:01:45.519Z,7.26
2023-04-03T08:04:12.784Z,7.14
2023-04-03T08:06:46.625Z,7.08
2023-04-03T08:09:16.616Z,6.99
2023-04-03T08:11:45.948Z,7.03
2023-04-03T08:14:17.992Z,7.11
2023-04-03T08:16:47.425Z,6.98
2023-04-03T08:19:22.463Z,7.35
2023-04-03T08:21:54.459Z,7.11
2023-04-03T08:24:21.590Z,6.90
2023-04-03T08:26:48.509Z,6.83
2023-04-03T08:29:15.675Z,6.82
2023-04-03T08:31:42.664Z,7.03
2023-04-03T08:34:09.914Z,6.88
2023-04-03T08:36:37.320Z,6.86
2023-04-03T08:39:05.337Z,7.00
2023-04-03T08:41:40.265Z,7.13
2023-04-03T08:44:39.914Z,6.86
2023-04-03T08:47:13.072Z,6.82
2023-04-03T08:49:54.459Z,6.77
2023-04-03T08:52:33.323Z,6.99
2023-04-03T08:55:02.827Z,7.12
2023-04-03T08:57:37.794Z,7.28
2023-04-03T09:00:23.722Z,7.67
2023-04-03T09:03:01.120Z,7.70
2023-04-03T09:06:06.836Z,7.59
2023-04-03T09:08:48.201Z,7.23
2023-04-03T09:11:31.760Z,7.77
2023-04-03T09:14:18.293Z,7.20
2023-04-03T09:16:59.465Z,7.07
2023-04-03T09:19:32.555Z,6.83
2023-04-03T09:22:24.157Z,6.94
2023-04-03T09:25:03.114Z,7.55
2023-04-03T09:27:30.924Z,7.18
2023-04-03T09:29:58.893Z,7.13
2023-04-03T09:32:30.178Z,7.13
2023-04-03T09:35:20.770Z,7.26
2023-04-03T09:37:53.362Z,6.85
2023-04-03T09:40:26.762Z,6.79
2023-04-03T09:43:01.218Z,7.13
2023-04-03T09:45:39.760Z,7.50
2023-04-03T09:48:20.535Z,7.77
2023-04-03T09:51:06.252Z,8.27
2023-04-03T09:53:34.815Z,8.05
2023-04-03T09:56:04.608Z,8.31
2023-04-03T09:58:49.035Z,7.89
2023-04-03T10:01:38.733Z,7.84
2023-04-03T10:04:17.810Z,8.11
2023-04-03T10:06:55.739Z,7.87
2023-04-03T10:09:35.113Z,7.79
2023-04-03T10:12:09.434Z,8.15
2023-04-03T10:14:58.917Z,8.14
2023-04-03T10:17:44.352Z,8.52
2023-04-03T10:20:38.052Z,8.54
2023-04-03T10:23:28.129Z,8.63
2023-04-03T10:26:06.132Z,8.82
2023-04-03T10:28:53.670Z,8.93
2023-04-03T10:31:30.940Z,9.45
2023-04-03T10:34:15.130Z,9.16
2023-04-03T10:37:08.673Z,8.70
2023-04-03T10:39:36.319Z,9.88
2023-04-03T10:42:25.252Z,10.22
2023-04-03T10:45:04.139Z,10.05
2023-04-03T10:47:50.474Z,10.32
2023-04-03T10:50:57.098Z,10.48
2023-04-03T10:53:36.264Z,10.50
2023-04-03T10:56:21.557Z,10.20
2023-04-03T10:59:15.138Z,10.08
2023-04-03T11:01:45.739Z,10.67
2023-04-03T11:04:15.444Z,10.72
2023-04-03T11:06:57.594Z,10.95
2023-04-03T11:09:50.784Z,11.08
2023-04-03T11:12:25.726Z,10.89
2023-04-03T11:17:53.669Z,10.07
2023-04-03T11:20:34.526Z,10.00
2023-04-03T11:23:48.203Z,10.37
2023-04-03T11:26:22.186Z,10.17
2023-04-03T11:28:59.813Z,10.81
2023-04-03T11:31:55.259Z,10.16
2023-04-03T11:34:57.974Z,10.55
2023-04-03T11:38:05.844Z,11.09
2023-04-03T11:40:38.637Z,9.97
2023-04-03T11:43:33.235Z,10.12
2023-04-03T11:46:06.624Z,10.53
2023-04-03T11:48:36.597Z,10.10
2023-04-03T11:51:21.082Z,9.54
2023-04-03T11:53:48.731Z,10.23
2023-04-03T11:56:25.108Z,10.73
2023-04-03T11:59:45.785Z,11.02
2023-04-03T12:02:53.626Z,10.31
2023-04-03T12:05:31.034Z,10.12
2023-04-03T12:08:27.800Z,9.89
2023-04-03T12:11:12.006Z,9.99
2023-04-03T12:13:54.787Z,10.14
2023-04-03T12:16:39.476Z,10.59
2023-04-03T12:19:26.517Z,10.69
2023-04-03T12:22:00.511Z,11.44
2023-04-03T12:24:53.213Z,11.32
2023-04-03T12:27:39.857Z,10.11
2023-04-03T12:30:33.008Z,10.36
2023-04-03T12:34:08.182Z,9.94
2023-04-03T12:37:08.621Z,10.20
2023-04-03T12:39:51.042Z,9.30
2023-04-03T12:42:39.554Z,9.67
2023-04-03T12:45:24.769Z,10.08
2023-04-03T12:47:54.959Z,9.97
2023-04-03T12:50:31.420Z,10.55
2023-04-03T12:53:06.636Z,10.04
2023-04-03T12:55:33.971Z,9.81
2023-04-03T12:58:30.005Z,9.99
2023-04-03T13:01:19.660Z,9.97
2023-04-03T13:07:02.713Z,9.17
2023-04-03T13:16:52.591Z,10.12
2023-04-03T13:19:22.523Z,10.54
2023-04-03T13:29:32.490Z,10.02
2023-04-03T13:32:21.645Z,10.82
2023-04-03T13:35:27.616Z,10.82
2023-04-03T13:38:09.816Z,10.68
2023-04-03T13:41:09.752Z,10.52
2023-04-03T13:47:16.372Z,10.53
2023-04-03T13:49:47.172Z,10.25
2023-04-03T13:53:20.201Z,9.76
2023-04-03T14:00:01.953Z,10.17
2023-04-03T14:16:23.326Z,9.38
2023-04-03T14:18:58.394Z,9.05
2023-04-03T14:21:26.211Z,9.06
2023-04-03T14:23:53.463Z,8.79
2023-04-03T14:26:23.767Z,8.26
2023-04-03T14:28:55.095Z,7.95
2023-04-03T14:31:22.999Z,8.36
2023-04-03T14:33:52.449Z,8.37
2023-04-03T14:36:26.398Z,8.49
2023-04-03T14:38:55.353Z,7.90
2023-04-03T14:41:25.446Z,8.17
2023-04-03T14:43:53.928Z,7.96
2023-04-03T14:46:55.520Z,7.91
2023-04-03T14:49:31.269Z,8.25
2023-04-03T14:52:01.212Z,7.88
2023-04-03T14:54:31.385Z,7.78
2023-04-03T14:57:00.676Z,7.81
2023-04-03T14:59:29.441Z,8.03
2023-04-03T15:01:56.440Z,8.78
2023-04-03T15:04:23.703Z,9.48
2023-04-03T15:07:00.401Z,8.95
2023-04-03T15:09:30.463Z,8.49
2023-04-03T15:11:58.980Z,7.78
2023-04-03T15:14:36.267Z,7.82
2023-04-03T15:17:07.657Z,7.82
2023-04-03T15:19:47.515Z,7.90
2023-04-03T15:22:16.512Z,8.13
2023-04-03T15:24:44.413Z,8.19
2023-04-03T15:27:13.546Z,7.94
2023-04-03T15:29:42.827Z,7.87
2023-04-03T15:32:10.884Z,7.99
2023-04-03T15:34:39.205Z,7.73
2023-04-03T15:37:06.746Z,7.71
2023-04-03T15:39:34.183Z,7.90
2023-04-03T15:42:07.284Z,8.11
2023-04-03T15:44:37.655Z,8.24
2023-04-03T15:47:05.231Z,7.58
2023-04-03T15:49:36.662Z,7.63
2023-04-03T15:52:05.134Z,7.39
2023-04-03T15:54:32.922Z,6.99
2023-04-03T15:57:00.257Z,7.02
2023-04-03T15:59:27.657Z,6.97
2023-04-03T16:01:54.779Z,7.32
2023-04-03T16:04:23.289Z,7.05
2023-04-03T16:07:05.723Z,7.17
2023-04-03T16:09:40.332Z,6.87
2023-04-03T16:12:12.050Z,7.02
2023-04-03T16:14:39.364Z,7.37
2023-04-03T16:17:07.023Z,7.15
2023-04-03T16:19:36.862Z,7.00
2023-04-03T16:22:03.889Z,7.11
2023-04-03T16:24:30.949Z,6.98
2023-04-03T16:27:15.722Z,6.79
2023-04-03T16:44:37.132Z,6.55
2023-04-03T17:00:26.628Z,6.80
2023-04-03T17:19:38.569Z,6.44
2023-04-03T17:22:42.474Z,6.12
2023-04-03T17:29:21.317Z,6.02
2023-04-03T17:35:16.100Z,6.10
2023-04-03T17:38:17.519Z,6.08
2023-04-03T17:47:20.635Z,6.43
2023-04-03T17:53:21.944Z,6.52
2023-04-03T17:56:00.925Z,6.20
2023-04-03T17:58:42.679Z,6.24
2023-04-03T18:01:15.376Z,6.40
2023-04-03T18:03:45.478Z,6.44
2023-04-03T18:06:26.813Z,6.16
2023-04-03T18:09:04.740Z,6.26
2023-04-03T18:11:41.440Z,6.39
2023-04-03T18:14:14.197Z,6.28
2023-04-03T18:16:43.462Z,5.86
2023-04-03T18:19:23.823Z,6.21
2023-04-03T18:21:58.449Z,6.63
2023-04-03T18:24:27.796Z,5.97
2023-04-03T18:27:06.146Z,5.86
2023-04-03T18:29:41.671Z,5.87
2023-04-03T18:32:17.507Z,6.04
2023-04-03T18:34:45.842Z,6.03
2023-04-03T18:37:16.091Z,5.88
2023-04-03T18:39:46.881Z,5.68
2023-04-03T18:42:31.321Z,6.26
2023-04-03T18:45:05.203Z,6.31
2023-04-03T18:47:49.203Z,6.07
2023-04-03T18:50:19.045Z,6.01
2023-04-03T18:52:53.601Z,5.54
2023-04-03T18:55:23.392Z,5.88
2023-04-03T18:57:52.039Z,5.90
2023-04-03T19:00:24.592Z,6.01
2023-04-03T19:02:55.277Z,5.72
2023-04-03T19:05:24.440Z,5.67
2023-04-03T19:07:53.901Z,5.57
2023-04-03T19:10:28.011Z,5.41
2023-04-03T19:12:56.695Z,5.62
2023-04-03T19:15:27.239Z,5.39
2023-04-03T19:17:57.045Z,5.26
2023-04-03T19:20:26.197Z,5.05
2023-04-03T19:22:57.691Z,5.23
2023-04-03T19:25:28.541Z,5.24
2023-04-03T19:27:55.767Z,5.24
2023-04-03T19:30:24.953Z,4.83
2023-04-03T19:32:52.375Z,4.81
2023-04-03T19:35:20.099Z,4.84
2023-04-03T19:37:51.157Z,4.75
2023-04-03T19:40:19.365Z,4.84
2023-04-03T19:42:46.901Z,4.86
2023-04-03T19:45:15.957Z,4.55
2023-04-03T19:47:43.317Z,4.46
2023-04-03T19:50:11.066Z,4.63
2023-04-03T19:52:38.440Z,4.35
2023-04-03T19:55:08.362Z,4.35
2023-04-03T19:57:35.536Z,4.36
2023-04-03T20:00:03.070Z,4.33
2023-04-03T20:02:30.323Z,4.37
2023-04-03T20:04:57.661Z,4.70
2023-04-03T20:07:25.542Z,4.71
2023-04-03T20:10:00.011Z,4.46
2023-04-03T20:12:27.725Z,4.40
2023-04-03T20:14:54.972Z,4.33
2023-04-03T20:17:22.220Z,4.36
2023-04-03T20:19:49.520Z,4.44
2023-04-03T20:22:19.821Z,4.32
2023-04-03T20:24:48.004Z,4.38
2023-04-03T20:27:18.118Z,4.13
2023-04-03T20:29:49.642Z,4.40
2023-04-03T20:32:17.024Z,4.24
2023-04-03T20:34:48.234Z,4.28
2023-04-03T20:37:27.062Z,4.61
2023-04-03T20:39:56.776Z,4.65
2023-04-03T20:42:24.234Z,4.20
2023-04-03T20:44:51.347Z,4.09
2023-04-03T20:47:18.757Z,4.12
2023-04-03T20:49:46.496Z,4.14
2023-04-03T20:52:13.520Z,4.21
2023-04-03T20:54:42.103Z,4.21
2023-04-03T20:57:09.127Z,4.06
2023-04-03T20:59:37.194Z,4.14
2023-04-03T21:02:04.282Z,4.02
2023-04-03T21:04:39.807Z,4.12
2023-04-03T21:07:44.462Z,4.10
2023-04-03T21:10:49.154Z,4.19
2023-04-03T21:13:54.130Z,4.15
2023-04-03T21:16:22.008Z,3.87
2023-04-03T21:18:57.368Z,4.29
2023-04-03T21:21:26.436Z,3.97
2023-04-03T21:23:55.333Z,4.11
2023-04-03T21:26:23.403Z,4.09
2023-04-03T21:28:51.687Z,4.05
2023-04-03T21:31:20.333Z,4.27
2023-04-03T21:33:47.754Z,3.93
2023-04-03T21:36:15.558Z,4.02
2023-04-03T21:38:42.774Z,3.84
2023-04-03T21:41:09.850Z,3.96
2023-04-03T21:43:37.508Z,4.23
2023-04-03T21:46:05.922Z,4.26
2023-04-03T21:48:32.976Z,4.05
2023-04-03T21:51:04.760Z,4.14
2023-04-03T21:53:33.285Z,4.06
2023-04-03T21:56:02.712Z,4.23
2023-04-03T21:58:32.187Z,4.33
2023-04-03T22:01:09.966Z,4.01
2023-04-03T22:03:37.978Z,4.31
2023-04-03T22:06:08.295Z,4.20
2023-04-03T22:08:36.027Z,4.08
2023-04-03T22:11:04.582Z,4.12
2023-04-03T22:13:31.803Z,3.79
2023-04-03T22:15:59.761Z,3.38
2023-04-03T22:18:27.504Z,3.52
2023-04-03T22:20:55.422Z,4.18
2023-04-03T22:23:23.336Z,3.83
2023-04-03T22:26:02.932Z,4.20
2023-04-03T22:28:32.030Z,3.92
2023-04-03T22:31:04.141Z,3.75
2023-04-03T22:33:31.485Z,3.90
2023-04-03T22:35:58.650Z,3.82
2023-04-03T22:38:25.893Z,3.74
2023-04-03T22:41:00.281Z,3.87
2023-04-03T22:43:28.650Z,3.75
2023-04-03T22:45:56.609Z,3.99
2023-04-03T22:48:24.631Z,4.04
2023-04-03T22:50:52.105Z,4.26
2023-04-03T22:53:19.460Z,3.36
2023-04-03T22:56:03.461Z,3.23
2023-04-03T22:58:30.770Z,3.01
2023-04-03T23:01:08.654Z,3.54
2023-04-03T23:03:37.309Z,3.94
2023-04-03T23:06:05.483Z,3.35
2023-04-03T23:08:34.768Z,3.36
2023-04-03T23:11:02.719Z,3.33
2023-04-03T23:13:29.899Z,3.40
2023-04-03T23:16:01.174Z,3.68
2023-04-03T23:18:31.746Z,3.67
2023-04-03T23:21:04.374Z,4.24
2023-04-03T23:23:32.333Z,4.18
2023-04-03T23:26:02.919Z,3.72
2023-04-03T23:28:30.790Z,3.68
2023-04-03T23:31:03.056Z,3.80
2023-04-03T23:33:31.983Z,3.92
2023-04-03T23:36:00.884Z,3.98
2023-04-03T23:38:27.988Z,4.22
2023-04-03T23:40:54.942Z,4.81
2023-04-03T23:43:22.028Z,4.45
2023-04-03T23:45:49.114Z,4.39
2023-04-03T23:48:16.360Z,4.21
2023-04-03T23:50:46.502Z,4.76
2023-04-03T23:53:13.843Z,4.59
2023-04-03T23:55:42.109Z,4.41
2023-04-03T23:58:09.268Z,4.57
